world map with BOS marked

BOS - Airport

This information may not be accurate or current and is not valid for navigation or flight planning. No warranty of fitness for any purpose is made or implied.

flag of Bostonflag of Massachusettsflag of United States

Donate via PayPal

Additional information is available on the NEW Great Circle Mapper

Location
City:  Boston, Massachusetts, United States
Name:General Edward Lawrence Logan International Airport
ICAO / IATA:KBOS / BOS
FAA:BOS

Details
Type:Airport (Part 139 Class I)
Use:Public/Civil
Latitude:42°21'47"N (42.362944)
Longitude:71°00'23"W (-71.006388)
Datum:WGS 1984
Elevation:19 ft (6 m)
Runways:6
Longest:10083 × 150 ft (3073 × 45.5 m)

Time
Timezone:UTC+29:08 (DST+32:08)
Local Time:

Weather
METAR:KBOS  101554Z 28012KT 10SM FEW040 SCT250 M03/M14 A3030 RMK AO2 SLP258 T10331139
TAF:KBOS  101127Z 1012/1118 29012KT P6SM FEW250= TAF SCBA 101049Z 1012/1112 31015KT 9999 BKN050 TN06/1012Z TX17/1018Z BECMG 1014/1016 30020G35KT CAVOK

Related Locations
Nearby:
Farthest:MQZ: 11763 mi / 18931 km
Margaret River [Margaret River Airport], WA, AU

Find:

   beyond  
but within

Other Information
Maps:
Delays:
Links:
Sources:

  

Airport Diagram

Airport diagram for BOS

Airport diagram PDF from FAA

Sectional Chart

Flight Planning
at skyvector.com

 


Great Circle Mapper   Great Circle Mapper
Great Circle Mapper FAQ   Great Circle Mapper FAQ
  Karl's Home Page
KLSē   KLSē Home
   GC on Facebook
Airlines of the World   Airlines of the World
Donate via PayPal


Copyright © 2004-2016, Karl L. Swartz. All rights reserved.
All trademarks mentioned herein belong to their respective owners.

Please see credits for attribution and copyright information.

Karl Swartz <karl@kls2.com>
  Powered by FreeBSD
Valid HTML 4.01!
Labeled with ICRA
hCard Microformat
Geo Microformat